Kopitnari Airport
UGKO : now visible

Airfield :











YOU CAN JOIN US ON...

 
LOGIN :

Register | Disclaimer

   EN    FR    IT 

 









Legend :    VFR   Marginal VFR   IFR   Intensive IFR   Very Intensive IFR
Visi :
Ceiling :
>= 8 km
>= 3000ft
5 to 8 km
1000 to 3000 ft
1500m to 5 km
500 to 1000 ft
800 to 1500m
200 to 500 ft
< 800m
< 200 ft
Symbols :   Thunderstorms  Fog  Heavy snow  Heavy precipitations  Wind > 20 kt






- Airport Elevation : 223 ft
- IATA code : KUT


UGKO - Kopitnari

CURRENT METAR :
  • 020700Z VRB05KT 5000 -RA BR SCT021 OVC045 09/09 Q1015 R25/29//50 NOSIG

EXPIRED METARs :
  • 020630Z VRB04KT 5000 -RA BR SCT022 OVC050 08/08 Q1015 R25/29//50 NOSIG
  • 020600Z VRB05KT 5000 -RA BR SCT019 OVC039 08/08 Q1015 R25/29//50 NOSIG
  • 020530Z VRB05KT 5000 -RA BR SCT019 OVC039 08/08 Q1015 R25/29//50 NOSIG
  • 020500Z 35003KT 330V030 3700 RA BR SCT016 OVC039 08/08 Q1015 R25/29//50 NOSIG
  • 020430Z 06002KT 4000 RA BR SCT020 OVC042 08/08 Q1014 R25/29//50 NOSIG

TAF TAF UGKO
Valid from the 02 at 06:00 until the 03 at 06:00 UTC


020500Z 0206/0306 24007KT 9999 SCT026 OVC050 TX13/0212Z TN06/0302Z
TEMPO 0206/0215 5000 RA BR SCT030 BKN060
BECMG 0215/0218 08007KT SCT100



MET'MAP, your aeronautical weather chart ! - Copyright ORBIFLY December 2007 - Disclaimer

ORBIFLY MET'MAP TEAM :

Programming & Development : Alexandra Zaïnal
Concept & original design : Baudouin d'Aumeries
Assistance for programming : Marc-Olivier Méhu
Technical & hardware support : Manuel Goepfert

Contact : metmap@orbifly.com




SOURCES & CREDITS :

   NOAA       Earth
Advisory